sensor_id;sensor_type;location;lat;lon;timestamp;temperature;humidity
4097;DHT22;2062;50.694;7.246;2023-09-30T00:00:09;15.60;59.30
4097;DHT22;2062;50.694;7.246;2023-09-30T00:02:36;15.50;59.40
4097;DHT22;2062;50.694;7.246;2023-09-30T00:05:05;15.60;59.40
4097;DHT22;2062;50.694;7.246;2023-09-30T00:07:32;15.50;59.40
4097;DHT22;2062;50.694;7.246;2023-09-30T00:09:59;15.50;59.40
4097;DHT22;2062;50.694;7.246;2023-09-30T00:12:26;15.40;59.40
4097;DHT22;2062;50.694;7.246;2023-09-30T00:14:53;15.30;59.30
4097;DHT22;2062;50.694;7.246;2023-09-30T00:17:20;15.30;59.40
4097;DHT22;2062;50.694;7.246;2023-09-30T00:19:47;15.30;59.50
4097;DHT22;2062;50.694;7.246;2023-09-30T00:22:15;15.40;59.60
4097;DHT22;2062;50.694;7.246;2023-09-30T00:24:42;15.20;59.50
4097;DHT22;2062;50.694;7.246;2023-09-30T00:27:08;15.10;59.50
4097;DHT22;2062;50.694;7.246;2023-09-30T00:29:35;15.20;59.50
4097;DHT22;2062;50.694;7.246;2023-09-30T00:32:02;15.10;59.40
4097;DHT22;2062;50.694;7.246;2023-09-30T00:34:32;15.10;59.60
4097;DHT22;2062;50.694;7.246;2023-09-30T00:36:59;15.00;59.60
4097;DHT22;2062;50.694;7.246;2023-09-30T00:39:28;15.00;59.60
4097;DHT22;2062;50.694;7.246;2023-09-30T00:41:56;15.00;59.70
4097;DHT22;2062;50.694;7.246;2023-09-30T00:44:24;15.00;59.70
4097;DHT22;2062;50.694;7.246;2023-09-30T00:46:50;14.90;59.80
4097;DHT22;2062;50.694;7.246;2023-09-30T00:49:18;14.90;59.90
4097;DHT22;2062;50.694;7.246;2023-09-30T00:51:45;14.90;59.90
4097;DHT22;2062;50.694;7.246;2023-09-30T00:54:12;14.80;59.90
4097;DHT22;2062;50.694;7.246;2023-09-30T00:56:44;14.80;59.80
4097;DHT22;2062;50.694;7.246;2023-09-30T00:59:12;14.80;60.20
4097;DHT22;2062;50.694;7.246;2023-09-30T01:01:40;14.90;60.60
4097;DHT22;2062;50.694;7.246;2023-09-30T01:04:07;14.80;60.70
4097;DHT22;2062;50.694;7.246;2023-09-30T01:06:33;14.70;60.70
4097;DHT22;2062;50.694;7.246;2023-09-30T01:09:00;14.70;60.80
4097;DHT22;2062;50.694;7.246;2023-09-30T01:11:28;14.70;60.70
4097;DHT22;2062;50.694;7.246;2023-09-30T01:13:56;14.70;61.00
4097;DHT22;2062;50.694;7.246;2023-09-30T01:16:23;14.70;60.90
4097;DHT22;2062;50.694;7.246;2023-09-30T01:18:50;14.60;61.00
4097;DHT22;2062;50.694;7.246;2023-09-30T01:21:18;14.60;61.00
4097;DHT22;2062;50.694;7.246;2023-09-30T01:23:46;14.60;61.00
4097;DHT22;2062;50.694;7.246;2023-09-30T01:26:13;14.60;61.30
4097;DHT22;2062;50.694;7.246;2023-09-30T01:28:41;14.60;61.20
4097;DHT22;2062;50.694;7.246;2023-09-30T01:31:07;14.60;61.50
4097;DHT22;2062;50.694;7.246;2023-09-30T01:33:34;14.50;61.80
4097;DHT22;2062;50.694;7.246;2023-09-30T01:36:01;14.50;62.00
4097;DHT22;2062;50.694;7.246;2023-09-30T01:38:28;14.50;62.30
4097;DHT22;2062;50.694;7.246;2023-09-30T01:40:56;14.50;62.60
4097;DHT22;2062;50.694;7.246;2023-09-30T01:43:23;14.50;62.50
4097;DHT22;2062;50.694;7.246;2023-09-30T01:45:50;14.50;62.60
4097;DHT22;2062;50.694;7.246;2023-09-30T01:48:17;14.50;62.70
4097;DHT22;2062;50.694;7.246;2023-09-30T01:50:43;14.60;63.10
4097;DHT22;2062;50.694;7.246;2023-09-30T01:53:10;14.60;63.10
4097;DHT22;2062;50.694;7.246;2023-09-30T01:55:37;14.50;63.00
4097;DHT22;2062;50.694;7.246;2023-09-30T01:58:05;14.50;62.90
4097;DHT22;2062;50.694;7.246;2023-09-30T02:00:33;14.50;63.30
4097;DHT22;2062;50.694;7.246;2023-09-30T02:03:00;14.50;63.10
4097;DHT22;2062;50.694;7.246;2023-09-30T02:05:27;14.50;63.20
4097;DHT22;2062;50.694;7.246;2023-09-30T02:07:54;14.50;63.30
4097;DHT22;2062;50.694;7.246;2023-09-30T02:10:21;14.60;63.30
4097;DHT22;2062;50.694;7.246;2023-09-30T02:12:48;14.50;63.30
4097;DHT22;2062;50.694;7.246;2023-09-30T02:15:16;14.50;63.30
4097;DHT22;2062;50.694;7.246;2023-09-30T02:17:43;14.50;63.20
4097;DHT22;2062;50.694;7.246;2023-09-30T02:20:12;14.50;63.30
4097;DHT22;2062;50.694;7.246;2023-09-30T02:22:41;14.40;63.20
4097;DHT22;2062;50.694;7.246;2023-09-30T02:25:09;14.50;63.30
4097;DHT22;2062;50.694;7.246;2023-09-30T02:27:38;14.40;63.30
4097;DHT22;2062;50.694;7.246;2023-09-30T02:30:06;14.40;63.50
4097;DHT22;2062;50.694;7.246;2023-09-30T02:32:34;14.40;63.60
4097;DHT22;2062;50.694;7.246;2023-09-30T02:35:01;14.50;63.70
4097;DHT22;2062;50.694;7.246;2023-09-30T02:37:32;14.40;64.00
4097;DHT22;2062;50.694;7.246;2023-09-30T02:40:01;14.40;64.10
4097;DHT22;2062;50.694;7.246;2023-09-30T02:42:29;14.40;64.00
4097;DHT22;2062;50.694;7.246;2023-09-30T02:44:58;14.40;64.00
4097;DHT22;2062;50.694;7.246;2023-09-30T02:47:25;14.40;64.00
4097;DHT22;2062;50.694;7.246;2023-09-30T02:49:54;14.40;63.90
4097;DHT22;2062;50.694;7.246;2023-09-30T02:52:21;14.40;63.90
4097;DHT22;2062;50.694;7.246;2023-09-30T02:54:48;14.40;64.20
4097;DHT22;2062;50.694;7.246;2023-09-30T02:57:15;14.40;64.20
4097;DHT22;2062;50.694;7.246;2023-09-30T02:59:43;14.40;64.10
4097;DHT22;2062;50.694;7.246;2023-09-30T03:02:10;14.40;64.00
4097;DHT22;2062;50.694;7.246;2023-09-30T03:04:37;14.40;63.90
4097;DHT22;2062;50.694;7.246;2023-09-30T03:07:05;14.40;63.80
4097;DHT22;2062;50.694;7.246;2023-09-30T03:09:32;14.40;63.70
4097;DHT22;2062;50.694;7.246;2023-09-30T03:11:59;14.40;63.60
4097;DHT22;2062;50.694;7.246;2023-09-30T03:14:26;14.40;63.50
4097;DHT22;2062;50.694;7.246;2023-09-30T03:16:56;14.40;63.30
4097;DHT22;2062;50.694;7.246;2023-09-30T03:19:23;14.40;63.50
4097;DHT22;2062;50.694;7.246;2023-09-30T03:21:49;14.40;63.50
4097;DHT22;2062;50.694;7.246;2023-09-30T03:24:18;14.30;63.60
4097;DHT22;2062;50.694;7.246;2023-09-30T03:26:44;14.30;63.80
4097;DHT22;2062;50.694;7.246;2023-09-30T03:29:11;14.40;63.90
4097;DHT22;2062;50.694;7.246;2023-09-30T03:31:39;14.30;64.00
4097;DHT22;2062;50.694;7.246;2023-09-30T03:34:06;14.30;64.10
4097;DHT22;2062;50.694;7.246;2023-09-30T03:36:34;14.30;64.20
4097;DHT22;2062;50.694;7.246;2023-09-30T03:39:01;14.30;64.40
4097;DHT22;2062;50.694;7.246;2023-09-30T03:41:33;14.30;64.40
4097;DHT22;2062;50.694;7.246;2023-09-30T03:44:00;14.20;64.30
4097;DHT22;2062;50.694;7.246;2023-09-30T03:46:28;14.20;64.40
4097;DHT22;2062;50.694;7.246;2023-09-30T03:48:55;14.20;64.50
4097;DHT22;2062;50.694;7.246;2023-09-30T03:51:22;14.20;64.40
4097;DHT22;2062;50.694;7.246;2023-09-30T03:53:51;14.20;64.40
4097;DHT22;2062;50.694;7.246;2023-09-30T03:56:17;14.10;64.30
4097;DHT22;2062;50.694;7.246;2023-09-30T03:58:46;14.20;64.20
4097;DHT22;2062;50.694;7.246;2023-09-30T04:01:14;14.20;64.30
4097;DHT22;2062;50.694;7.246;2023-09-30T04:03:42;14.10;64.30
4097;DHT22;2062;50.694;7.246;2023-09-30T04:06:09;14.10;64.50
4097;DHT22;2062;50.694;7.246;2023-09-30T04:08:36;14.00;64.40
4097;DHT22;2062;50.694;7.246;2023-09-30T04:11:04;14.10;64.50
4097;DHT22;2062;50.694;7.246;2023-09-30T04:13:31;14.00;64.50
4097;DHT22;2062;50.694;7.246;2023-09-30T04:16:00;14.00;64.40
4097;DHT22;2062;50.694;7.246;2023-09-30T04:18:26;14.00;64.50
4097;DHT22;2062;50.694;7.246;2023-09-30T04:20:54;14.00;64.30
4097;DHT22;2062;50.694;7.246;2023-09-30T04:23:20;13.90;64.40
4097;DHT22;2062;50.694;7.246;2023-09-30T04:25:47;13.90;64.30
4097;DHT22;2062;50.694;7.246;2023-09-30T04:28:15;13.90;64.40
4097;DHT22;2062;50.694;7.246;2023-09-30T04:30:46;13.80;64.40
4097;DHT22;2062;50.694;7.246;2023-09-30T04:33:15;13.80;64.40
4097;DHT22;2062;50.694;7.246;2023-09-30T04:35:43;13.80;64.50
4097;DHT22;2062;50.694;7.246;2023-09-30T04:38:10;13.80;64.40
4097;DHT22;2062;50.694;7.246;2023-09-30T04:40:37;13.80;64.30
4097;DHT22;2062;50.694;7.246;2023-09-30T04:43:04;13.80;64.30
4097;DHT22;2062;50.694;7.246;2023-09-30T04:45:31;13.70;64.40
4097;DHT22;2062;50.694;7.246;2023-09-30T04:47:58;13.70;64.30
4097;DHT22;2062;50.694;7.246;2023-09-30T04:50:28;13.80;64.50
4097;DHT22;2062;50.694;7.246;2023-09-30T04:52:55;13.70;64.50
4097;DHT22;2062;50.694;7.246;2023-09-30T04:55:23;13.70;64.40
4097;DHT22;2062;50.694;7.246;2023-09-30T04:57:50;13.60;64.40
4097;DHT22;2062;50.694;7.246;2023-09-30T05:00:18;13.60;64.50
4097;DHT22;2062;50.694;7.246;2023-09-30T05:02:50;13.60;64.40
4097;DHT22;2062;50.694;7.246;2023-09-30T05:05:17;13.60;64.20
4097;DHT22;2062;50.694;7.246;2023-09-30T05:07:45;13.60;64.20
4097;DHT22;2062;50.694;7.246;2023-09-30T05:10:13;13.60;64.10
4097;DHT22;2062;50.694;7.246;2023-09-30T05:12:41;13.50;64.10
4097;DHT22;2062;50.694;7.246;2023-09-30T05:15:11;13.50;64.00
4097;DHT22;2062;50.694;7.246;2023-09-30T05:17:39;13.50;63.90
4097;DHT22;2062;50.694;7.246;2023-09-30T05:20:06;13.50;63.70
4097;DHT22;2062;50.694;7.246;2023-09-30T05:22:33;13.40;63.60
4097;DHT22;2062;50.694;7.246;2023-09-30T05:25:01;13.40;63.70
4097;DHT22;2062;50.694;7.246;2023-09-30T05:27:28;13.40;63.70
4097;DHT22;2062;50.694;7.246;2023-09-30T05:29:56;13.40;64.20
4097;DHT22;2062;50.694;7.246;2023-09-30T05:32:22;13.40;64.50
4097;DHT22;2062;50.694;7.246;2023-09-30T05:34:52;13.30;64.90
4097;DHT22;2062;50.694;7.246;2023-09-30T05:37:19;13.30;65.20
4097;DHT22;2062;50.694;7.246;2023-09-30T05:39:47;13.30;65.60
4097;DHT22;2062;50.694;7.246;2023-09-30T05:42:15;13.30;65.60
4097;DHT22;2062;50.694;7.246;2023-09-30T05:44:44;13.30;65.60
4097;DHT22;2062;50.694;7.246;2023-09-30T05:47:11;13.40;65.90
4097;DHT22;2062;50.694;7.246;2023-09-30T05:49:39;13.30;65.80
4097;DHT22;2062;50.694;7.246;2023-09-30T05:52:05;13.30;66.10
4097;DHT22;2062;50.694;7.246;2023-09-30T05:54:32;13.30;66.00
4097;DHT22;2062;50.694;7.246;2023-09-30T05:56:59;13.30;66.00
4097;DHT22;2062;50.694;7.246;2023-09-30T05:59:29;13.30;66.20
4097;DHT22;2062;50.694;7.246;2023-09-30T06:01:56;13.30;66.00
4097;DHT22;2062;50.694;7.246;2023-09-30T06:04:23;13.30;66.00
4097;DHT22;2062;50.694;7.246;2023-09-30T06:06:50;13.30;66.00
4097;DHT22;2062;50.694;7.246;2023-09-30T06:09:17;13.30;66.10
4097;DHT22;2062;50.694;7.246;2023-09-30T06:11:44;13.40;65.60
4097;DHT22;2062;50.694;7.246;2023-09-30T06:14:10;13.40;66.90
4097;DHT22;2062;50.694;7.246;2023-09-30T06:16:38;13.50;66.60
4097;DHT22;2062;50.694;7.246;2023-09-30T06:19:05;13.40;66.40
4097;DHT22;2062;50.694;7.246;2023-09-30T06:21:32;13.40;66.40
4097;DHT22;2062;50.694;7.246;2023-09-30T06:24:00;13.40;66.30
4097;DHT22;2062;50.694;7.246;2023-09-30T06:26:27;13.40;66.50
4097;DHT22;2062;50.694;7.246;2023-09-30T06:28:55;13.40;66.00
4097;DHT22;2062;50.694;7.246;2023-09-30T06:31:22;13.40;66.20
4097;DHT22;2062;50.694;7.246;2023-09-30T06:33:51;13.50;66.40
4097;DHT22;2062;50.694;7.246;2023-09-30T06:36:18;13.60;66.40
4097;DHT22;2062;50.694;7.246;2023-09-30T06:38:46;13.50;67.80
4097;DHT22;2062;50.694;7.246;2023-09-30T06:41:16;13.60;66.70
4097;DHT22;2062;50.694;7.246;2023-09-30T06:43:43;13.60;66.70
4097;DHT22;2062;50.694;7.246;2023-09-30T06:46:10;13.70;66.80
4097;DHT22;2062;50.694;7.246;2023-09-30T06:48:38;13.70;67.00
4097;DHT22;2062;50.694;7.246;2023-09-30T06:51:07;13.70;67.50
4097;DHT22;2062;50.694;7.246;2023-09-30T06:53:34;13.70;66.60
4097;DHT22;2062;50.694;7.246;2023-09-30T06:56:04;13.80;66.90
4097;DHT22;2062;50.694;7.246;2023-09-30T06:58:31;13.90;66.70
4097;DHT22;2062;50.694;7.246;2023-09-30T07:00:58;13.90;67.10
4097;DHT22;2062;50.694;7.246;2023-09-30T07:03:25;14.10;67.50
4097;DHT22;2062;50.694;7.246;2023-09-30T07:05:52;14.10;67.50
4097;DHT22;2062;50.694;7.246;2023-09-30T07:08:21;14.30;67.40
4097;DHT22;2062;50.694;7.246;2023-09-30T07:10:48;14.40;67.60
4097;DHT22;2062;50.694;7.246;2023-09-30T07:13:15;14.70;68.00
4097;DHT22;2062;50.694;7.246;2023-09-30T07:15:43;14.80;68.10
4097;DHT22;2062;50.694;7.246;2023-09-30T07:18:10;15.00;68.40
4097;DHT22;2062;50.694;7.246;2023-09-30T07:20:38;15.20;68.30
4097;DHT22;2062;50.694;7.246;2023-09-30T07:23:05;15.50;68.40
4097;DHT22;2062;50.694;7.246;2023-09-30T07:25:33;15.70;68.20
4097;DHT22;2062;50.694;7.246;2023-09-30T07:28:00;15.90;68.20
4097;DHT22;2062;50.694;7.246;2023-09-30T07:30:27;16.20;67.60
4097;DHT22;2062;50.694;7.246;2023-09-30T07:32:54;16.40;67.30
4097;DHT22;2062;50.694;7.246;2023-09-30T07:35:21;16.60;67.00
4097;DHT22;2062;50.694;7.246;2023-09-30T07:37:47;16.90;66.80
4097;DHT22;2062;50.694;7.246;2023-09-30T07:40:17;17.10;66.30
4097;DHT22;2062;50.694;7.246;2023-09-30T07:42:45;17.40;65.60
4097;DHT22;2062;50.694;7.246;2023-09-30T07:45:12;17.60;65.40
4097;DHT22;2062;50.694;7.246;2023-09-30T07:47:43;17.80;64.80
4097;DHT22;2062;50.694;7.246;2023-09-30T07:50:12;18.10;64.60
4097;DHT22;2062;50.694;7.246;2023-09-30T07:52:38;18.30;63.40
4097;DHT22;2062;50.694;7.246;2023-09-30T07:55:07;18.50;62.60
4097;DHT22;2062;50.694;7.246;2023-09-30T07:57:34;18.70;61.90
4097;DHT22;2062;50.694;7.246;2023-09-30T08:00:04;18.90;62.40
4097;DHT22;2062;50.694;7.246;2023-09-30T08:02:34;19.20;62.40
4097;DHT22;2062;50.694;7.246;2023-09-30T08:05:02;19.40;61.80
4097;DHT22;2062;50.694;7.246;2023-09-30T08:07:28;19.60;61.20
4097;DHT22;2062;50.694;7.246;2023-09-30T08:09:55;19.80;60.30
4097;DHT22;2062;50.694;7.246;2023-09-30T08:12:22;20.00;60.20
4097;DHT22;2062;50.694;7.246;2023-09-30T08:14:49;20.10;59.20
4097;DHT22;2062;50.694;7.246;2023-09-30T08:17:18;20.30;58.60
4097;DHT22;2062;50.694;7.246;2023-09-30T08:19:45;20.50;58.50
4097;DHT22;2062;50.694;7.246;2023-09-30T08:22:13;20.70;58.40
4097;DHT22;2062;50.694;7.246;2023-09-30T08:24:40;20.80;57.80
4097;DHT22;2062;50.694;7.246;2023-09-30T08:27:06;21.00;57.20
4097;DHT22;2062;50.694;7.246;2023-09-30T08:29:34;21.20;56.70
4097;DHT22;2062;50.694;7.246;2023-09-30T08:32:02;21.30;55.60
4097;DHT22;2062;50.694;7.246;2023-09-30T08:34:30;21.50;55.80
4097;DHT22;2062;50.694;7.246;2023-09-30T08:36:59;21.60;55.30
4097;DHT22;2062;50.694;7.246;2023-09-30T08:39:26;21.80;54.50
4097;DHT22;2062;50.694;7.246;2023-09-30T08:41:55;21.90;54.00
4097;DHT22;2062;50.694;7.246;2023-09-30T08:44:22;22.10;54.30
4097;DHT22;2062;50.694;7.246;2023-09-30T08:46:49;22.20;53.70
4097;DHT22;2062;50.694;7.246;2023-09-30T08:49:18;22.40;53.60
4097;DHT22;2062;50.694;7.246;2023-09-30T08:51:48;22.60;53.00
4097;DHT22;2062;50.694;7.246;2023-09-30T08:54:16;22.70;52.70
4097;DHT22;2062;50.694;7.246;2023-09-30T08:56:46;22.80;52.60
4097;DHT22;2062;50.694;7.246;2023-09-30T08:59:14;22.90;52.20
4097;DHT22;2062;50.694;7.246;2023-09-30T09:01:41;23.10;51.00
4097;DHT22;2062;50.694;7.246;2023-09-30T09:04:08;23.20;50.90
4097;DHT22;2062;50.694;7.246;2023-09-30T09:06:36;23.30;51.10
4097;DHT22;2062;50.694;7.246;2023-09-30T09:09:17;23.40;50.70
4097;DHT22;2062;50.694;7.246;2023-09-30T09:11:44;23.50;52.30
4097;DHT22;2062;50.694;7.246;2023-09-30T09:14:12;23.70;50.40
4097;DHT22;2062;50.694;7.246;2023-09-30T09:16:51;23.70;50.20
4097;DHT22;2062;50.694;7.246;2023-09-30T09:19:18;23.90;50.80
4097;DHT22;2062;50.694;7.246;2023-09-30T09:21:55;24.00;49.20
4097;DHT22;2062;50.694;7.246;2023-09-30T09:24:31;24.10;49.00
4097;DHT22;2062;50.694;7.246;2023-09-30T09:27:04;24.10;48.40
4097;DHT22;2062;50.694;7.246;2023-09-30T09:29:32;24.20;48.30
4097;DHT22;2062;50.694;7.246;2023-09-30T09:32:12;24.30;47.40
4097;DHT22;2062;50.694;7.246;2023-09-30T09:34:39;24.30;48.40
4097;DHT22;2062;50.694;7.246;2023-09-30T09:37:14;24.40;47.00
4097;DHT22;2062;50.694;7.246;2023-09-30T09:39:51;24.50;48.20
4097;DHT22;2062;50.694;7.246;2023-09-30T09:42:25;24.60;48.50
4097;DHT22;2062;50.694;7.246;2023-09-30T09:44:55;24.70;47.80
4097;DHT22;2062;50.694;7.246;2023-09-30T09:47:22;24.80;46.50
4097;DHT22;2062;50.694;7.246;2023-09-30T09:49:50;24.90;46.30
4097;DHT22;2062;50.694;7.246;2023-09-30T09:52:18;24.90;46.20
4097;DHT22;2062;50.694;7.246;2023-09-30T09:54:46;24.90;46.50
4097;DHT22;2062;50.694;7.246;2023-09-30T09:57:16;25.00;45.70
4097;DHT22;2062;50.694;7.246;2023-09-30T09:59:45;25.00;46.70
4097;DHT22;2062;50.694;7.246;2023-09-30T10:02:14;25.10;45.90
4097;DHT22;2062;50.694;7.246;2023-09-30T10:04:42;25.10;45.20
4097;DHT22;2062;50.694;7.246;2023-09-30T10:07:12;25.20;44.50
4097;DHT22;2062;50.694;7.246;2023-09-30T10:09:43;25.20;45.80
4097;DHT22;2062;50.694;7.246;2023-09-30T10:12:14;25.20;44.80
4097;DHT22;2062;50.694;7.246;2023-09-30T10:14:41;25.30;45.00
4097;DHT22;2062;50.694;7.246;2023-09-30T10:17:09;25.30;44.60
4097;DHT22;2062;50.694;7.246;2023-09-30T10:19:36;25.30;45.20
4097;DHT22;2062;50.694;7.246;2023-09-30T10:22:24;25.40;45.30
4097;DHT22;2062;50.694;7.246;2023-09-30T10:24:52;25.40;44.70
4097;DHT22;2062;50.694;7.246;2023-09-30T10:27:30;25.40;44.60
4097;DHT22;2062;50.694;7.246;2023-09-30T10:29:58;25.50;45.40
4097;DHT22;2062;50.694;7.246;2023-09-30T10:35:41;25.60;45.50
4097;DHT22;2062;50.694;7.246;2023-09-30T10:38:38;25.60;43.90
4097;DHT22;2062;50.694;7.246;2023-09-30T10:41:09;25.60;41.60
4097;DHT22;2062;50.694;7.246;2023-09-30T10:43:39;25.60;41.60
4097;DHT22;2062;50.694;7.246;2023-09-30T10:46:30;25.50;40.50
4097;DHT22;2062;50.694;7.246;2023-09-30T10:49:15;25.40;40.60
4097;DHT22;2062;50.694;7.246;2023-09-30T10:51:43;25.30;41.30
4097;DHT22;2062;50.694;7.246;2023-09-30T10:54:13;25.20;40.90
4097;DHT22;2062;50.694;7.246;2023-09-30T10:56:40;25.20;41.00
4097;DHT22;2062;50.694;7.246;2023-09-30T10:59:07;25.10;40.10
4097;DHT22;2062;50.694;7.246;2023-09-30T11:01:35;25.10;40.30
4097;DHT22;2062;50.694;7.246;2023-09-30T11:04:03;25.00;40.00
4097;DHT22;2062;50.694;7.246;2023-09-30T11:06:32;25.00;40.30
4097;DHT22;2062;50.694;7.246;2023-09-30T11:09:00;25.00;40.10
4097;DHT22;2062;50.694;7.246;2023-09-30T11:11:36;25.00;39.90
4097;DHT22;2062;50.694;7.246;2023-09-30T11:14:17;24.90;41.10
4097;DHT22;2062;50.694;7.246;2023-09-30T11:16:44;25.00;41.00
4097;DHT22;2062;50.694;7.246;2023-09-30T11:19:12;25.00;40.10
4097;DHT22;2062;50.694;7.246;2023-09-30T11:21:40;25.00;40.20
4097;DHT22;2062;50.694;7.246;2023-09-30T11:24:10;25.00;40.40
4097;DHT22;2062;50.694;7.246;2023-09-30T11:26:38;25.00;40.20
4097;DHT22;2062;50.694;7.246;2023-09-30T11:29:08;25.00;40.60
4097;DHT22;2062;50.694;7.246;2023-09-30T11:31:37;25.00;39.50
4097;DHT22;2062;50.694;7.246;2023-09-30T11:34:04;25.00;39.30
4097;DHT22;2062;50.694;7.246;2023-09-30T11:36:34;24.90;38.50
4097;DHT22;2062;50.694;7.246;2023-09-30T11:39:01;24.90;38.90
4097;DHT22;2062;50.694;7.246;2023-09-30T11:41:36;24.80;39.50
4097;DHT22;2062;50.694;7.246;2023-09-30T11:44:07;24.70;38.70
4097;DHT22;2062;50.694;7.246;2023-09-30T11:46:49;24.70;38.30
4097;DHT22;2062;50.694;7.246;2023-09-30T11:49:28;24.60;38.40
4097;DHT22;2062;50.694;7.246;2023-09-30T11:51:58;24.50;39.10
4097;DHT22;2062;50.694;7.246;2023-09-30T11:54:32;24.50;38.90
4097;DHT22;2062;50.694;7.246;2023-09-30T11:57:00;24.40;39.30
4097;DHT22;2062;50.694;7.246;2023-09-30T11:59:28;24.40;39.60
4097;DHT22;2062;50.694;7.246;2023-09-30T12:01:55;24.30;39.50
4097;DHT22;2062;50.694;7.246;2023-09-30T12:04:22;24.20;39.30
4097;DHT22;2062;50.694;7.246;2023-09-30T12:06:49;24.20;37.90
4097;DHT22;2062;50.694;7.246;2023-09-30T12:09:16;24.10;38.10
4097;DHT22;2062;50.694;7.246;2023-09-30T12:11:48;24.00;38.90
4097;DHT22;2062;50.694;7.246;2023-09-30T12:14:15;23.90;39.10
4097;DHT22;2062;50.694;7.246;2023-09-30T12:16:43;23.80;37.70
4097;DHT22;2062;50.694;7.246;2023-09-30T12:19:11;23.70;39.00
4097;DHT22;2062;50.694;7.246;2023-09-30T12:21:39;23.60;39.60
4097;DHT22;2062;50.694;7.246;2023-09-30T12:24:06;23.60;39.30
4097;DHT22;2062;50.694;7.246;2023-09-30T12:26:34;23.50;39.90
4097;DHT22;2062;50.694;7.246;2023-09-30T12:29:01;23.50;39.20
4097;DHT22;2062;50.694;7.246;2023-09-30T12:31:28;23.50;39.30
4097;DHT22;2062;50.694;7.246;2023-09-30T12:33:57;23.50;39.60
4097;DHT22;2062;50.694;7.246;2023-09-30T12:36:25;23.60;40.30
4097;DHT22;2062;50.694;7.246;2023-09-30T12:38:52;23.70;40.50
4097;DHT22;2062;50.694;7.246;2023-09-30T12:41:18;23.70;39.60
4097;DHT22;2062;50.694;7.246;2023-09-30T12:43:46;23.80;40.20
4097;DHT22;2062;50.694;7.246;2023-09-30T12:46:13;23.80;40.00
4097;DHT22;2062;50.694;7.246;2023-09-30T12:48:40;23.90;40.20
4097;DHT22;2062;50.694;7.246;2023-09-30T12:51:08;24.00;40.00
4097;DHT22;2062;50.694;7.246;2023-09-30T12:53:35;24.00;39.70
4097;DHT22;2062;50.694;7.246;2023-09-30T12:56:02;24.10;39.90
4097;DHT22;2062;50.694;7.246;2023-09-30T12:58:29;24.10;40.00
4097;DHT22;2062;50.694;7.246;2023-09-30T13:00:56;24.20;40.10
4097;DHT22;2062;50.694;7.246;2023-09-30T13:03:23;24.30;40.10
4097;DHT22;2062;50.694;7.246;2023-09-30T13:05:50;24.30;39.90
4097;DHT22;2062;50.694;7.246;2023-09-30T13:08:18;24.30;40.00
4097;DHT22;2062;50.694;7.246;2023-09-30T13:10:45;24.40;39.70
4097;DHT22;2062;50.694;7.246;2023-09-30T13:13:13;24.50;39.30
4097;DHT22;2062;50.694;7.246;2023-09-30T13:15:41;24.50;39.20
4097;DHT22;2062;50.694;7.246;2023-09-30T13:18:07;24.60;39.20
4097;DHT22;2062;50.694;7.246;2023-09-30T13:20:34;24.60;39.90
4097;DHT22;2062;50.694;7.246;2023-09-30T13:23:01;24.60;39.00
4097;DHT22;2062;50.694;7.246;2023-09-30T13:25:30;24.70;39.30
4097;DHT22;2062;50.694;7.246;2023-09-30T13:27:57;24.70;39.20
4097;DHT22;2062;50.694;7.246;2023-09-30T13:30:23;24.80;39.80
4097;DHT22;2062;50.694;7.246;2023-09-30T13:32:50;24.90;39.70
4097;DHT22;2062;50.694;7.246;2023-09-30T13:35:17;24.90;39.40
4097;DHT22;2062;50.694;7.246;2023-09-30T13:37:44;25.00;39.20
4097;DHT22;2062;50.694;7.246;2023-09-30T13:40:12;25.00;39.40
4097;DHT22;2062;50.694;7.246;2023-09-30T13:42:40;25.10;39.50
4097;DHT22;2062;50.694;7.246;2023-09-30T13:45:08;25.20;39.40
4097;DHT22;2062;50.694;7.246;2023-09-30T13:47:36;25.20;39.00
4097;DHT22;2062;50.694;7.246;2023-09-30T13:50:03;25.20;38.30
4097;DHT22;2062;50.694;7.246;2023-09-30T13:52:32;25.20;38.00
4097;DHT22;2062;50.694;7.246;2023-09-30T13:54:59;25.20;37.00
4097;DHT22;2062;50.694;7.246;2023-09-30T13:57:26;25.20;37.50
4097;DHT22;2062;50.694;7.246;2023-09-30T13:59:54;25.10;37.30
4097;DHT22;2062;50.694;7.246;2023-09-30T14:02:21;25.10;37.30
4097;DHT22;2062;50.694;7.246;2023-09-30T14:04:48;25.10;38.00
4097;DHT22;2062;50.694;7.246;2023-09-30T14:07:15;25.10;38.00
4097;DHT22;2062;50.694;7.246;2023-09-30T14:09:44;25.10;38.00
4097;DHT22;2062;50.694;7.246;2023-09-30T14:12:10;25.00;37.90
4097;DHT22;2062;50.694;7.246;2023-09-30T14:14:37;25.00;37.70
4097;DHT22;2062;50.694;7.246;2023-09-30T14:17:05;25.00;37.60
4097;DHT22;2062;50.694;7.246;2023-09-30T14:19:36;25.10;37.40
4097;DHT22;2062;50.694;7.246;2023-09-30T14:22:04;25.00;37.70
4097;DHT22;2062;50.694;7.246;2023-09-30T14:24:31;25.00;37.60
4097;DHT22;2062;50.694;7.246;2023-09-30T14:26:59;25.00;37.40
4097;DHT22;2062;50.694;7.246;2023-09-30T14:29:26;24.90;36.50
4097;DHT22;2062;50.694;7.246;2023-09-30T14:31:54;24.90;35.60
4097;DHT22;2062;50.694;7.246;2023-09-30T14:34:23;24.80;36.20
4097;DHT22;2062;50.694;7.246;2023-09-30T14:36:50;24.70;35.40
4097;DHT22;2062;50.694;7.246;2023-09-30T14:39:17;24.60;35.80
4097;DHT22;2062;50.694;7.246;2023-09-30T14:41:44;24.40;35.20
4097;DHT22;2062;50.694;7.246;2023-09-30T14:44:11;24.30;35.70
4097;DHT22;2062;50.694;7.246;2023-09-30T14:46:38;24.20;36.30
4097;DHT22;2062;50.694;7.246;2023-09-30T14:49:06;24.10;37.00
4097;DHT22;2062;50.694;7.246;2023-09-30T14:51:34;24.00;37.30
4097;DHT22;2062;50.694;7.246;2023-09-30T14:54:02;24.00;37.40
4097;DHT22;2062;50.694;7.246;2023-09-30T14:56:29;23.90;37.50
4097;DHT22;2062;50.694;7.246;2023-09-30T14:58:56;23.80;37.70
4097;DHT22;2062;50.694;7.246;2023-09-30T15:01:23;23.70;37.60
4097;DHT22;2062;50.694;7.246;2023-09-30T15:03:51;23.60;37.80
4097;DHT22;2062;50.694;7.246;2023-09-30T15:06:18;23.50;37.60
4097;DHT22;2062;50.694;7.246;2023-09-30T15:08:47;23.50;38.10
4097;DHT22;2062;50.694;7.246;2023-09-30T15:11:15;23.50;38.40
4097;DHT22;2062;50.694;7.246;2023-09-30T15:13:42;23.40;38.50
4097;DHT22;2062;50.694;7.246;2023-09-30T15:16:15;23.30;38.60
4097;DHT22;2062;50.694;7.246;2023-09-30T15:18:42;23.20;38.60
4097;DHT22;2062;50.694;7.246;2023-09-30T15:21:09;23.20;39.00
4097;DHT22;2062;50.694;7.246;2023-09-30T15:23:36;23.10;39.50
4097;DHT22;2062;50.694;7.246;2023-09-30T15:26:04;23.00;39.30
4097;DHT22;2062;50.694;7.246;2023-09-30T15:28:31;23.00;39.30
4097;DHT22;2062;50.694;7.246;2023-09-30T15:30:59;22.90;39.30
4097;DHT22;2062;50.694;7.246;2023-09-30T15:33:27;22.90;39.40
4097;DHT22;2062;50.694;7.246;2023-09-30T15:35:54;22.80;39.40
4097;DHT22;2062;50.694;7.246;2023-09-30T15:38:21;22.70;40.00
4097;DHT22;2062;50.694;7.246;2023-09-30T15:40:54;22.60;39.30
4097;DHT22;2062;50.694;7.246;2023-09-30T15:43:24;22.60;39.50
4097;DHT22;2062;50.694;7.246;2023-09-30T15:45:51;22.40;39.70
4097;DHT22;2062;50.694;7.246;2023-09-30T15:48:19;22.30;39.90
4097;DHT22;2062;50.694;7.246;2023-09-30T15:50:46;22.30;39.90
4097;DHT22;2062;50.694;7.246;2023-09-30T15:53:13;22.10;40.00
4097;DHT22;2062;50.694;7.246;2023-09-30T15:55:40;22.10;40.10
4097;DHT22;2062;50.694;7.246;2023-09-30T15:58:07;22.00;40.40
4097;DHT22;2062;50.694;7.246;2023-09-30T16:00:37;21.90;40.40
4097;DHT22;2062;50.694;7.246;2023-09-30T16:03:04;21.80;40.50
4097;DHT22;2062;50.694;7.246;2023-09-30T16:05:32;21.70;40.80
4097;DHT22;2062;50.694;7.246;2023-09-30T16:07:59;21.60;40.90
4097;DHT22;2062;50.694;7.246;2023-09-30T16:10:26;21.60;41.00